Time;durP1;ratioP1;P1;durP2;ratioP2;P2;SDS_P1;SDS_P2;PMS_P1;PMS_P2;Temp;Humidity;BMP_temperature;BMP_pressure;BME280_temperature;BME280_humidity;BME280_pressure;Samples;Min_cycle;Max_cycle;Signal;HPM_P1;HPM_P2
2022/09/11 00:00:58;;;;;;;18.08;8.75;;;;;;;13.13;42.24;100007.00;5019979;28;20044;-74
2022/09/11 00:03:26;;;;;;;17.05;8.65;;;;;;;13.11;42.07;99993.00;5069413;28;20046;-74
2022/09/11 00:05:52;;;;;;;16.60;8.75;;;;;;;13.18;42.22;100018.00;5070695;28;20044;-73
2022/09/11 00:08:20;;;;;;;20.60;9.40;;;;;;;13.27;42.13;100025.84;5036062;28;20061;-74
2022/09/11 00:10:47;;;;;;;19.77;9.45;;;;;;;13.11;41.95;100004.50;5069303;28;20090;-73
2022/09/11 00:13:19;;;;;;;18.60;9.23;;;;;;;13.33;41.87;100017.19;5036326;28;20131;-73
2022/09/11 00:15:47;;;;;;;20.23;10.02;;;;;;;13.30;41.64;100027.34;5053034;28;20033;-73
2022/09/11 00:18:16;;;;;;;17.65;9.02;;;;;;;13.30;41.47;100011.34;5036032;28;20048;-72
2022/09/11 00:20:50;;;;;;;15.50;8.80;;;;;;;13.32;41.21;100018.19;5070875;28;20072;-73
2022/09/11 00:23:17;;;;;;;18.63;9.63;;;;;;;13.27;41.64;100015.19;5075811;28;20496;-72
2022/09/11 00:25:45;;;;;;;20.33;9.52;;;;;;;13.17;41.39;99998.50;5048311;28;20048;-74
2022/09/11 00:28:19;;;;;;;19.55;9.95;;;;;;;13.30;41.40;100006.84;5041168;28;20094;-74
2022/09/11 00:30:47;;;;;;;20.05;10.35;;;;;;;13.28;41.36;100006.16;5069664;28;20119;-73
2022/09/11 00:33:14;;;;;;;19.38;10.10;;;;;;;13.29;41.17;100007.84;5054507;28;20076;-74
2022/09/11 00:35:41;;;;;;;22.27;9.43;;;;;;;13.25;41.38;100017.16;5023175;28;20058;-74
2022/09/11 00:38:07;;;;;;;25.63;10.30;;;;;;;13.24;41.78;100018.19;5056657;28;20075;-74
2022/09/11 00:40:44;;;;;;;22.92;10.18;;;;;;;13.30;41.56;100009.50;5056616;28;20063;-75
2022/09/11 00:43:10;;;;;;;22.63;10.02;;;;;;;13.07;41.73;100019.16;5073175;28;20074;-74
2022/09/11 00:45:35;;;;;;;20.92;9.95;;;;;;;13.00;41.60;100020.81;5023149;28;20045;-74
2022/09/11 00:48:02;;;;;;;24.65;11.13;;;;;;;12.94;42.45;100023.28;5023462;28;20147;-74
2022/09/11 00:50:29;;;;;;;22.80;11.43;;;;;;;13.03;42.27;100019.66;5056667;28;20074;-74
2022/09/11 00:52:59;;;;;;;24.80;10.85;;;;;;;13.05;42.60;100013.13;5074026;28;20044;-74
2022/09/11 00:55:31;;;;;;;22.85;12.00;;;;;;;12.98;42.61;100014.78;5021499;28;20562;-74
2022/09/11 00:57:57;;;;;;;;;;;;;;;13.10;42.36;100008.16;5054593;28;20048;-75
2022/09/11 01:00:24;;;;;;;24.30;10.98;;;;;;;12.68;43.00;100011.88;5053593;28;19924;-74
2022/09/11 01:02:52;;;;;;;23.85;10.88;;;;;;;12.81;42.99;100001.56;5053946;28;20048;-74
2022/09/11 01:05:21;;;;;;;20.63;10.25;;;;;;;12.73;43.15;100005.06;5053730;28;20040;-74
2022/09/11 01:07:57;;;;;;;26.92;11.18;;;;;;;12.57;43.29;100013.00;5040780;28;20144;-73
2022/09/11 01:11:14;;;;;;;26.30;11.35;;;;;;;12.86;43.04;100017.91;5053867;28;20076;-74
2022/09/11 01:13:58;;;;;;;24.25;10.20;;;;;;;12.85;43.27;100016.25;5030511;28;20052;-73
2022/09/11 01:16:58;;;;;;;27.90;11.40;;;;;;;12.77;43.14;100003.75;5039105;28;20055;-73
2022/09/11 01:19:48;;;;;;;25.42;10.07;;;;;;;12.84;42.88;100011.94;5055807;28;20086;-74
2022/09/11 01:22:32;;;;;;;19.80;10.18;;;;;;;12.88;42.90;100016.78;5039118;28;20044;-74
2022/09/11 01:25:19;;;;;;;28.92;9.82;;;;;;;12.81;43.34;100018.41;5055641;28;20139;-74
2022/09/11 01:27:50;;;;;;;21.92;10.40;;;;;;;12.76;43.40;100014.56;5022464;28;20048;-73
2022/09/11 01:30:19;;;;;;;18.38;9.35;;;;;;;12.67;43.46;100016.38;5055547;28;20431;-74
2022/09/11 01:33:13;;;;;;;27.00;9.07;;;;;;;12.78;43.12;100021.41;5055574;28;20207;-74
2022/09/11 01:35:48;;;;;;;18.38;9.60;;;;;;;12.61;43.50;99992.22;5055557;28;20126;-74
2022/09/11 01:38:19;;;;;;;17.20;9.20;;;;;;;12.70;43.47;100009.91;5055113;28;20045;-74
2022/09/11 01:40:53;;;;;;;15.25;7.88;;;;;;;12.69;43.28;100000.22;5038688;28;20135;-74
2022/09/11 01:43:25;;;;;;;14.45;7.85;;;;;;;12.69;43.02;100010.88;5038800;28;20043;-73
2022/09/11 01:45:53;;;;;;;25.38;9.57;;;;;;;12.51;43.07;100010.16;5054911;28;20055;-73
2022/09/11 01:48:24;;;;;;;19.50;9.80;;;;;;;12.67;42.90;100003.03;5038658;28;20424;-73
2022/09/11 01:50:55;;;;;;;16.95;8.73;;;;;;;12.58;42.97;100009.34;5039133;28;20040;-73
2022/09/11 01:53:24;;;;;;;19.90;8.80;;;;;;;12.51;43.14;99984.34;5038823;28;20048;-73
2022/09/11 01:56:01;;;;;;;17.38;8.63;;;;;;;12.73;42.93;100002.38;5021971;28;20070;-73
2022/09/11 01:58:30;;;;;;;23.77;10.15;;;;;;;12.60;43.22;99999.38;5038670;28;20045;-73
2022/09/11 02:01:22;;;;;;;21.17;9.27;;;;;;;12.66;43.55;100006.72;5038690;28;20992;-73
2022/09/11 02:04:01;;;;;;;18.20;9.50;;;;;;;12.60;43.47;99988.72;5071735;28;20045;-74
2022/09/11 02:06:32;;;;;;;16.45;9.50;;;;;;;12.45;43.93;99990.34;5071479;28;20915;-73
2022/09/11 02:09:00;;;;;;;20.83;9.75;;;;;;;12.44;43.87;99982.50;5021663;28;20056;-74
2022/09/11 02:11:31;;;;;;;19.17;9.43;;;;;;;12.42;44.06;99984.47;5071432;28;20063;-73
2022/09/11 02:14:07;;;;;;;14.50;8.57;;;;;;;12.41;43.70;99980.16;5054898;28;20041;-74
2022/09/11 02:16:50;;;;;;;19.27;9.57;;;;;;;12.47;43.72;99990.16;5038818;28;20282;-74
2022/09/11 02:19:23;;;;;;;16.55;9.57;;;;;;;12.42;43.94;99992.47;5021847;28;20044;-74
2022/09/11 02:21:51;;;;;;;21.98;9.70;;;;;;;12.19;44.06;99996.72;5070989;28;20072;-73
2022/09/11 02:24:17;;;;;;;19.83;9.07;;;;;;;12.24;43.95;99999.72;5038015;28;20041;-74
2022/09/11 02:26:59;;;;;;;22.40;9.38;;;;;;;12.45;43.68;99989.50;5038090;28;20044;-73
2022/09/11 02:29:25;;;;;;;18.33;9.23;;;;;;;12.12;44.37;99988.50;5054029;28;20517;-73
2022/09/11 02:31:52;;;;;;;18.98;9.52;;;;;;;12.15;44.22;99987.38;5021389;28;20036;-74
2022/09/11 02:34:26;;;;;;;16.52;8.90;;;;;;;12.29;44.04;99990.25;5038640;28;20452;-74
2022/09/11 02:37:15;;;;;;;17.95;8.68;;;;;;;12.43;43.67;99992.31;5054206;28;20052;-74
2022/09/11 02:39:52;;;;;;;18.77;9.43;;;;;;;12.37;43.93;99984.97;5018063;28;20059;-74
2022/09/11 02:42:43;;;;;;;20.25;10.02;;;;;;;12.37;43.68;99981.47;5019452;28;20580;-75
2022/09/11 02:45:15;;;;;;;15.75;8.75;;;;;;;12.36;43.91;99988.59;5052512;28;20049;-75
2022/09/11 02:48:11;;;;;;;18.42;8.88;;;;;;;12.44;43.75;99993.97;5068735;28;20102;-75
2022/09/11 02:50:40;;;;;;;14.85;7.80;;;;;;;12.39;43.55;99990.13;5036389;28;20041;-74
2022/09/11 02:53:20;;;;;;;23.92;8.18;;;;;;;12.45;43.87;99995.66;5069885;28;20044;-73
2022/09/11 02:56:04;;;;;;;22.75;8.15;;;;;;;12.43;43.52;99994.13;5069203;28;20496;-73
2022/09/11 02:58:40;;;;;;;17.00;8.23;;;;;;;12.41;43.88;99991.63;5054070;28;20052;-73
2022/09/11 03:01:07;;;;;;;17.73;7.78;;;;;;;12.29;43.61;99984.94;5021457;28;20531;-73
2022/09/11 03:03:42;;;;;;;15.30;7.88;;;;;;;12.45;43.61;99987.66;5053717;28;20508;-73
2022/09/11 03:06:11;;;;;;;17.00;8.60;;;;;;;12.41;43.64;99988.16;5070668;28;20044;-74
2022/09/11 03:08:39;;;;;;;24.20;8.15;;;;;;;12.19;43.75;99984.25;5037736;28;20198;-74
2022/09/11 03:11:08;;;;;;;22.38;9.02;;;;;;;12.23;43.71;99980.25;5036899;28;20139;-74
2022/09/11 03:13:35;;;;;;;17.77;8.80;;;;;;;12.29;43.64;99979.59;5053621;28;20048;-74
2022/09/11 03:16:03;;;;;;;17.25;8.73;;;;;;;12.20;43.57;99961.94;5053964;28;20231;-74
2022/09/11 03:18:30;;;;;;;19.35;9.00;;;;;;;12.25;43.66;99980.94;5037618;28;20048;-74
2022/09/11 03:20:56;;;;;;;19.83;8.50;;;;;;;12.21;43.50;99989.41;5037141;28;20051;-73
2022/09/11 03:23:24;;;;;;;16.83;7.68;;;;;;;12.23;43.68;99980.25;5037636;28;20047;-73
2022/09/11 03:25:51;;;;;;;19.25;7.95;;;;;;;12.25;43.47;99980.09;5021551;28;20048;-72
2022/09/11 03:28:17;;;;;;;13.27;6.65;;;;;;;12.33;42.92;99972.94;5021717;28;20059;-74
2022/09/11 03:30:43;;;;;;;14.90;7.05;;;;;;;12.32;43.08;99979.28;5020197;28;20048;-74
2022/09/11 03:33:10;;;;;;;16.83;7.65;;;;;;;12.37;42.86;99974.31;5037038;28;20447;-73
2022/09/11 03:35:36;;;;;;;13.15;7.65;;;;;;;12.36;43.00;99977.94;5036796;28;20051;-73
2022/09/11 03:38:02;;;;;;;11.20;6.40;;;;;;;12.38;42.68;99964.50;5019855;28;20048;-74
2022/09/11 03:40:30;;;;;;;15.45;7.90;;;;;;;12.64;42.62;99968.72;5036267;28;20401;-73
2022/09/11 03:43:05;;;;;;;15.07;7.32;;;;;;;12.48;42.41;99968.69;5038385;28;20063;-72
2022/09/11 03:45:31;;;;;;;14.70;7.22;;;;;;;12.50;42.47;99966.69;5019907;28;20511;-73
2022/09/11 03:47:58;;;;;;;14.70;7.25;;;;;;;12.48;42.75;99963.38;5020149;28;20040;-73
2022/09/11 03:50:23;;;;;;;18.48;8.20;;;;;;;12.58;42.62;99964.03;5053008;28;20058;-72
2022/09/11 03:52:52;;;;;;;16.13;7.47;;;;;;;12.52;42.67;99961.19;5053410;28;20051;-71
2022/09/11 03:55:22;;;;;;;14.13;7.82;;;;;;;12.84;42.50;99966.63;5052682;28;20040;-72
2022/09/11 03:57:48;;;;;;;20.75;8.25;;;;;;;12.74;42.43;99957.91;5053141;28;20051;-72
2022/09/11 04:00:15;;;;;;;16.00;7.22;;;;;;;12.75;42.45;99959.56;5052432;28;20041;-72
2022/09/11 04:02:46;;;;;;;15.75;7.80;;;;;;;12.76;42.23;99964.75;5069407;28;20037;-72
2022/09/11 04:05:20;;;;;;;22.17;7.30;;;;;;;12.84;41.84;99964.75;5021168;28;20106;-72
2022/09/11 04:07:48;;;;;;;15.55;7.57;;;;;;;12.89;41.93;99961.59;5035954;28;20156;-72
2022/09/11 04:10:15;;;;;;;16.30;8.10;;;;;;;12.93;41.88;99963.78;5036427;28;20047;-73
2022/09/11 04:12:40;;;;;;;16.67;8.32;;;;;;;12.99;41.74;99973.78;5036413;28;20873;-72
2022/09/11 04:15:07;;;;;;;15.30;7.82;;;;;;;13.07;41.52;99970.31;5019755;28;20040;-72
2022/09/11 04:17:33;;;;;;;14.60;7.80;;;;;;;13.05;41.55;99973.16;5019636;28;20052;-72
2022/09/11 04:19:59;;;;;;;18.42;8.23;;;;;;;13.14;41.42;99972.19;5069086;28;20131;-73
2022/09/11 04:22:25;;;;;;;16.08;8.05;;;;;;;13.06;41.26;99958.84;5035940;28;20591;-73
2022/09/11 04:24:51;;;;;;;16.30;8.05;;;;;;;13.25;41.16;99973.69;5069369;28;20056;-74
2022/09/11 04:27:17;;;;;;;17.10;7.95;;;;;;;13.24;41.34;99967.50;5019428;28;20051;-74
2022/09/11 04:29:49;;;;;;;14.93;8.00;;;;;;;13.50;41.19;99978.81;5052958;28;20504;-74
2022/09/11 04:32:15;;;;;;;18.10;8.50;;;;;;;13.24;41.54;99975.50;5019705;28;20049;-72
2022/09/11 04:34:41;;;;;;;15.73;8.48;;;;;;;13.36;41.33;99976.00;5035897;28;20097;-74
2022/09/11 04:37:07;;;;;;;14.38;7.70;;;;;;;13.38;41.07;99974.00;5052190;28;20044;-74
2022/09/11 04:39:33;;;;;;;16.70;8.20;;;;;;;13.46;40.93;99969.50;5052344;28;20052;-73
2022/09/11 04:42:01;;;;;;;13.40;7.38;;;;;;;13.55;40.70;99976.47;5019664;28;20067;-73
2022/09/11 04:44:28;;;;;;;17.35;8.15;;;;;;;13.64;41.08;99971.97;5035808;28;20052;-73
2022/09/11 04:46:55;;;;;;;14.02;7.90;;;;;;;13.70;40.78;99965.94;5002976;28;20045;-73
2022/09/11 04:49:23;;;;;;;18.50;8.18;;;;;;;13.76;40.65;99977.78;5052540;28;20047;-73
2022/09/11 04:51:49;;;;;;;15.70;7.28;;;;;;;13.82;40.60;99972.63;5052347;28;20049;-74
2022/09/11 04:54:22;;;;;;;12.35;7.57;;;;;;;14.05;40.27;99970.03;5019734;28;20071;-74
2022/09/11 04:56:49;;;;;;;13.20;6.60;;;;;;;13.93;39.89;99974.91;5052988;28;20036;-73
2022/09/11 04:59:19;;;;;;;21.55;8.98;;;;;;;14.18;40.36;99967.63;5036232;28;20048;-72
2022/09/11 05:01:53;;;;;;;20.95;7.40;;;;;;;14.18;39.78;99981.00;5068605;28;20049;-72
2022/09/11 05:04:19;;;;;;;15.00;7.38;;;;;;;14.19;39.66;99970.13;5035679;28;20052;-73
2022/09/11 05:06:47;;;;;;;15.30;7.30;;;;;;;14.30;39.74;99971.66;5019044;28;20048;-73
2022/09/11 05:09:16;;;;;;;17.25;7.53;;;;;;;14.48;39.70;99978.41;5036248;28;20097;-73
2022/09/11 05:11:43;;;;;;;21.23;7.30;;;;;;;14.42;39.45;99975.59;5052585;28;20455;-73
2022/09/11 05:14:10;;;;;;;18.60;8.63;;;;;;;14.45;40.02;99965.38;5018969;28;20047;-72
2022/09/11 05:16:38;;;;;;;14.75;7.35;;;;;;;14.54;39.78;99991.09;5019453;28;20645;-72
2022/09/11 05:19:04;;;;;;;14.00;6.57;;;;;;;14.45;39.61;99988.63;5018985;28;20423;-73
2022/09/11 05:21:32;;;;;;;12.68;5.97;;;;;;;14.56;39.66;99980.22;5022928;28;20036;-73
2022/09/11 05:24:00;;;;;;;12.93;6.63;;;;;;;14.61;39.96;99976.00;5039085;28;20051;-73
2022/09/11 05:26:32;;;;;;;15.20;6.30;;;;;;;14.77;39.51;99973.25;5055601;28;20052;-74
2022/09/11 05:29:02;;;;;;;17.60;7.55;;;;;;;14.85;39.99;99973.16;5022961;28;20044;-73
2022/09/11 05:31:30;;;;;;;13.88;7.03;;;;;;;14.66;39.67;99972.78;5039132;28;20052;-74
2022/09/11 05:34:00;;;;;;;13.90;6.88;;;;;;;14.87;39.71;99971.16;5022688;28;20071;-74
2022/09/11 05:36:27;;;;;;;17.92;7.60;;;;;;;14.95;39.77;99975.63;5039320;28;20135;-74
2022/09/11 05:38:53;;;;;;;16.35;7.32;;;;;;;15.11;39.23;99978.19;5038770;28;20051;-73
2022/09/11 05:41:19;;;;;;;16.60;8.15;;;;;;;15.33;38.92;99982.69;5022433;28;20040;-73
2022/09/11 05:43:45;;;;;;;19.27;7.40;;;;;;;15.33;38.49;99980.00;5055692;28;20078;-73
2022/09/11 05:46:14;;;;;;;17.30;7.40;;;;;;;15.53;38.70;99961.63;5022285;28;20071;-73
2022/09/11 05:48:40;;;;;;;14.85;7.88;;;;;;;15.67;38.36;99969.69;5055242;28;20848;-71
2022/09/11 05:51:15;;;;;;;23.67;7.38;;;;;;;16.07;37.86;99977.28;5039055;28;20037;-72
2022/09/11 05:53:45;;;;;;;16.38;6.63;;;;;;;15.97;37.10;99963.34;5038786;28;20080;-70
2022/09/11 05:56:14;;;;;;;15.50;6.85;;;;;;;16.26;36.67;99963.34;5055344;28;20047;-68
2022/09/11 05:58:43;;;;;;;13.05;5.78;;;;;;;16.60;36.38;99979.69;5055144;28;20048;-66
2022/09/11 06:01:12;;;;;;;14.70;6.53;;;;;;;16.84;36.35;99965.94;5021916;28;20170;-67
2022/09/11 06:03:43;;;;;;;15.15;6.65;;;;;;;16.97;36.14;99969.75;5022473;28;20049;-66
2022/09/11 06:06:12;;;;;;;18.65;6.82;;;;;;;17.14;36.08;99976.56;5038733;28;20083;-67
2022/09/11 06:08:41;;;;;;;15.52;5.82;;;;;;;17.26;35.26;99989.28;5038100;28;20145;-67
2022/09/11 06:11:07;;;;;;;13.15;6.18;;;;;;;17.29;35.52;99988.03;5038391;28;20075;-67
2022/09/11 06:13:37;;;;;;;10.32;5.70;;;;;;;17.40;34.77;99974.09;5021394;28;20079;-69
2022/09/11 06:16:09;;;;;;;13.18;6.65;;;;;;;17.61;35.75;99974.09;5038239;28;20048;-68
2022/09/11 06:18:35;;;;;;;15.88;7.00;;;;;;;17.52;35.94;99965.38;5037838;28;20101;-68
2022/09/11 06:21:17;;;;;;;14.20;6.72;;;;;;;17.80;35.26;99974.28;5038391;28;20097;-68
2022/09/11 06:23:50;;;;;;;18.35;8.45;;;;;;;18.11;35.06;99974.66;5039435;28;20037;-67
2022/09/11 06:26:23;;;;;;;15.15;7.00;;;;;;;18.33;34.03;99975.41;5054989;28;20413;-67
2022/09/11 06:28:50;;;;;;;16.00;7.43;;;;;;;18.38;34.06;99989.13;5038602;28;20048;-68
2022/09/11 06:31:18;;;;;;;15.18;7.03;;;;;;;18.61;33.80;99969.97;5037606;28;20044;-68
2022/09/11 06:33:49;;;;;;;10.98;6.32;;;;;;;18.80;32.86;99966.50;5054319;28;20127;-69
2022/09/11 06:36:18;;;;;;;13.82;7.53;;;;;;;18.78;33.10;99955.13;5038035;28;20044;-68
2022/09/11 06:38:45;;;;;;;13.93;7.63;;;;;;;18.83;32.98;99963.41;5037368;28;20138;-68
2022/09/11 06:41:16;;;;;;;13.13;6.88;;;;;;;19.32;32.30;99969.34;5053998;28;20044;-67
2022/09/11 06:43:45;;;;;;;11.45;6.47;;;;;;;19.04;32.24;99971.31;5021216;28;20046;-69
2022/09/11 06:46:13;;;;;;;14.95;5.75;;;;;;;19.27;31.99;99969.97;5037631;28;20048;-69
2022/09/11 06:48:40;;;;;;;15.30;5.50;;;;;;;19.20;32.50;99954.78;5037193;28;20146;-71
2022/09/11 06:51:10;;;;;;;10.82;6.32;;;;;;;19.71;31.59;99945.09;5021189;28;20044;-73
2022/09/11 06:53:37;;;;;;;17.23;5.88;;;;;;;19.93;31.19;99960.81;5037167;28;20040;-73
2022/09/11 06:56:11;;;;;;;11.52;5.45;;;;;;;19.94;30.55;99951.69;5038715;28;20565;-74
2022/09/11 06:58:39;;;;;;;17.17;6.88;;;;;;;20.01;30.89;99949.81;5054325;28;20047;-76
2022/09/11 07:01:09;;;;;;;19.50;6.10;;;;;;;20.35;30.41;99955.97;5053730;28;20052;-74
2022/09/11 07:03:37;;;;;;;17.98;6.45;;;;;;;20.65;30.30;99949.81;5006751;28;20153;-72
2022/09/11 07:06:06;;;;;;;13.32;6.47;;;;;;;21.10;29.31;99953.31;5016737;28;20044;-72
2022/09/11 07:08:35;;;;;;;19.58;7.72;;;;;;;21.42;28.75;99950.38;5020205;28;20060;-71
2022/09/11 07:11:03;;;;;;;11.18;5.18;;;;;;;21.49;28.18;99947.63;5000032;28;20106;-75
2022/09/11 07:13:31;;;;;;;11.45;5.35;;;;;;;21.61;28.27;99944.00;5031923;28;20041;-74
2022/09/11 07:16:02;;;;;;;14.55;5.20;;;;;;;21.89;27.62;99946.25;5015207;28;20045;-71
2022/09/11 07:18:35;;;;;;;15.43;5.35;;;;;;;22.26;27.30;99956.06;5016027;28;20146;-69
2022/09/11 07:21:10;;;;;;;14.90;5.22;;;;;;;22.80;26.33;99941.66;4999353;28;20143;-70
2022/09/11 07:23:39;;;;;;;8.02;5.13;;;;;;;23.11;26.07;99941.41;4999440;28;20037;-71
2022/09/11 07:26:10;;;;;;;16.05;5.45;;;;;;;23.75;25.04;99929.75;5033694;28;20502;-70
2022/09/11 07:28:36;;;;;;;;;;;;;;;24.65;23.41;99938.03;5048077;28;20029;-71
2022/09/11 07:31:09;;;;;;;7.13;3.45;;;;;;;25.30;21.78;99937.59;5016683;28;19923;-71
2022/09/11 07:33:37;;;;;;;11.15;3.90;;;;;;;26.31;21.55;99933.47;5028708;28;20033;-72
2022/09/11 07:36:17;;;;;;;7.25;3.95;;;;;;;27.62;19.99;99923.97;5067734;28;20058;-71
2022/09/11 07:38:47;;;;;;;3.13;2.33;;;;;;;26.52;19.11;99945.47;5051784;28;20045;-70
2022/09/11 07:41:15;;;;;;;4.57;2.53;;;;;;;26.54;19.89;99920.69;5051198;28;20527;-73
2022/09/11 07:43:44;;;;;;;5.60;2.22;;;;;;;26.13;18.93;99933.78;5034162;28;20090;-72
2022/09/11 07:46:11;;;;;;;9.27;2.80;;;;;;;25.77;19.99;99917.19;5049816;28;20045;-72
2022/09/11 07:48:38;;;;;;;6.82;2.60;;;;;;;25.05;20.03;99932.53;5032614;28;20040;-72
2022/09/11 07:51:06;;;;;;;7.63;2.83;;;;;;;24.63;20.75;99912.16;5049099;28;20131;-71
2022/09/11 07:53:35;;;;;;;5.80;2.42;;;;;;;24.97;20.45;99916.59;5048929;28;20304;-72
2022/09/11 07:56:03;;;;;;;4.05;2.40;;;;;;;25.87;19.87;99907.25;5032435;28;20044;-72
2022/09/11 07:58:40;;;;;;;8.70;2.63;;;;;;;25.80;19.45;99916.69;5032435;28;20045;-72
2022/09/11 08:01:08;;;;;;;7.88;2.60;;;;;;;26.12;19.27;99912.25;5050410;28;20052;-71
2022/09/11 08:03:35;;;;;;;5.97;2.53;;;;;;;25.76;19.44;99910.91;5050812;28;20047;-73
2022/09/11 08:06:10;;;;;;;7.78;2.25;;;;;;;26.11;19.37;99892.38;5018412;28;20040;-72
2022/09/11 08:08:37;;;;;;;3.50;2.35;;;;;;;27.29;18.39;99900.50;5018348;28;20127;-71
2022/09/11 08:11:06;;;;;;;8.52;2.90;;;;;;;27.81;17.39;99895.19;5017836;28;20063;-71
2022/09/11 08:13:34;;;;;;;6.50;2.47;;;;;;;29.31;16.66;99893.03;5050328;28;20059;-72
2022/09/11 08:16:00;;;;;;;6.32;2.40;;;;;;;30.79;15.30;99891.28;5034252;28;20044;-73
2022/09/11 08:18:29;;;;;;;5.05;2.08;;;;;;;32.41;13.10;99903.28;5035425;28;20043;-72
2022/09/11 08:21:05;;;;;;;7.97;2.15;;;;;;;33.94;12.13;99893.22;5034678;28;20052;-72
2022/09/11 08:23:32;;;;;;;8.77;2.30;;;;;;;34.90;10.54;99887.38;5049131;28;20618;-72
2022/09/11 08:26:07;;;;;;;9.02;2.78;;;;;;;35.66;10.36;99875.25;5033170;28;20147;-72
2022/09/11 08:28:35;;;;;;;10.43;2.60;;;;;;;34.55;11.06;99873.53;5033787;28;20037;-73
2022/09/11 08:31:04;;;;;;;5.78;2.30;;;;;;;34.18;10.66;99880.88;5016557;28;20060;-72
2022/09/11 08:33:32;;;;;;;7.63;2.55;;;;;;;32.39;12.32;99878.03;5049561;28;20037;-72
2022/09/11 08:35:58;;;;;;;4.50;3.00;;;;;;;31.06;13.24;99855.19;5049385;28;20040;-72
2022/09/11 08:38:24;;;;;;;7.38;2.63;;;;;;;30.11;13.90;99869.34;5017232;28;20098;-72
2022/09/11 08:40:59;;;;;;;10.32;2.70;;;;;;;29.73;14.43;99870.84;5019290;28;20055;-70
2022/09/11 08:43:32;;;;;;;8.13;2.65;;;;;;;30.18;14.66;99859.75;5050826;28;20771;-73
2022/09/11 08:46:03;;;;;;;4.25;2.33;;;;;;;30.21;14.03;99861.97;5016316;28;20066;-70
2022/09/11 08:48:58;;;;;;;7.05;2.53;;;;;;;31.40;13.39;99842.25;5019389;28;20044;-72
2022/09/11 08:51:25;;;;;;;6.03;2.28;;;;;;;31.89;12.58;99864.06;5033662;28;20413;-71
2022/09/11 08:53:53;;;;;;;6.30;2.30;;;;;;;31.75;12.92;99844.66;5017173;28;20075;-71
2022/09/11 08:56:23;;;;;;;6.93;2.63;;;;;;;31.13;13.01;99859.22;5044361;28;20067;-71
2022/09/11 08:59:02;;;;;;;7.30;2.80;;;;;;;32.42;12.28;99847.19;5036259;28;20093;-72
2022/09/11 09:01:46;;;;;;;9.77;2.75;;;;;;;33.22;12.41;99852.59;5051803;28;20044;-71
2022/09/11 09:04:27;;;;;;;8.98;2.50;;;;;;;34.91;11.19;99852.28;5052616;28;20056;-73
2022/09/11 09:07:04;;;;;;;5.50;2.42;;;;;;;34.95;10.48;99832.00;5053390;28;20140;-74
2022/09/11 09:09:38;;;;;;;9.35;2.80;;;;;;;35.48;10.33;99860.53;5017999;28;20493;-73
2022/09/11 09:12:34;;;;;;;6.38;2.72;;;;;;;34.92;10.39;99862.22;5031394;28;20614;-73
2022/09/11 09:15:10;;;;;;;7.38;2.20;;;;;;;34.13;11.17;99847.09;5037354;28;20051;-73
2022/09/11 09:17:46;;;;;;;6.68;2.42;;;;;;;33.41;11.23;99851.50;5018408;28;20040;-74
2022/09/11 09:20:20;;;;;;;9.60;3.00;;;;;;;32.20;12.06;99855.16;5067703;28;20047;-73
2022/09/11 09:22:59;;;;;;;4.10;2.58;;;;;;;31.27;12.72;99840.16;5064442;28;20060;-73
2022/09/11 09:25:28;;;;;;;10.38;3.10;;;;;;;32.18;12.16;99849.09;5033579;28;20041;-73
2022/09/11 09:28:13;;;;;;;5.70;2.50;;;;;;;31.62;12.17;99845.34;5027677;28;20119;-73
2022/09/11 09:30:49;;;;;;;4.53;2.78;;;;;;;30.33;13.47;99842.44;5043401;28;20089;-72
2022/09/11 09:33:35;;;;;;;6.90;3.30;;;;;;;30.95;13.37;99834.41;5035251;28;20094;-73
2022/09/11 09:36:17;;;;;;;5.80;2.80;;;;;;;29.72;14.26;99830.88;5054636;28;20047;-73
2022/09/11 09:38:45;;;;;;;9.15;3.00;;;;;;;30.45;13.61;99838.25;5030184;28;20499;-73
2022/09/11 09:41:32;;;;;;;6.10;2.55;;;;;;;30.50;13.71;99842.88;5001703;28;20044;-72
2022/09/11 09:44:09;;;;;;;5.25;2.30;;;;;;;29.27;14.88;99837.22;5032542;28;20049;-71
2022/09/11 09:46:44;;;;;;;5.45;2.42;;;;;;;29.74;14.44;99839.59;5047634;28;20047;-72
2022/09/11 09:49:11;;;;;;;4.40;2.30;;;;;;;29.75;14.41;99840.44;4998316;28;20041;-72
2022/09/11 09:51:38;;;;;;;4.88;2.17;;;;;;;29.47;14.51;99831.72;5031206;28;20036;-72
2022/09/11 09:54:05;;;;;;;5.55;2.33;;;;;;;29.29;14.75;99840.47;5015701;28;20526;-72
2022/09/11 09:56:36;;;;;;;4.43;2.03;;;;;;;28.85;15.19;99824.84;5032176;28;20194;-72
2022/09/11 09:59:08;;;;;;;10.82;2.42;;;;;;;28.64;15.42;99834.13;5016736;28;20076;-72
2022/09/11 10:01:52;;;;;;;4.38;2.00;;;;;;;28.77;15.29;99826.22;5050991;28;20147;-72
2022/09/11 10:04:26;;;;;;;13.63;2.30;;;;;;;28.88;15.23;99830.59;5034545;28;20488;-73
2022/09/11 10:07:05;;;;;;;6.72;2.53;;;;;;;28.37;15.54;99831.56;5033787;28;20060;-72
2022/09/11 10:09:31;;;;;;;7.43;2.72;;;;;;;27.72;16.14;99832.06;5017705;28;20087;-72
2022/09/11 10:12:06;;;;;;;5.43;2.40;;;;;;;27.76;17.05;99829.63;5016910;28;20539;-72
2022/09/11 10:14:57;;;;;;;5.40;2.72;;;;;;;27.71;16.69;99833.16;5050321;28;20080;-72
2022/09/11 10:17:31;;;;;;;5.30;2.72;;;;;;;28.01;16.38;99835.25;5012768;28;20160;-72
2022/09/11 10:20:25;;;;;;;4.93;2.63;;;;;;;27.23;17.04;99835.28;5034074;28;20048;-72
2022/09/11 10:22:55;;;;;;;8.82;2.80;;;;;;;26.85;17.39;99849.13;5069361;28;20044;-72
2022/09/11 10:25:26;;;;;;;7.88;3.17;;;;;;;25.57;18.92;99821.66;5036967;28;20079;-72
2022/09/11 10:28:11;;;;;;;6.22;2.97;;;;;;;25.27;19.34;99841.03;5020687;28;20454;-73
2022/09/11 10:30:45;;;;;;;4.80;2.85;;;;;;;25.14;19.56;99822.31;5037034;28;20075;-72
2022/09/11 10:33:18;;;;;;;9.70;2.97;;;;;;;25.57;19.27;99814.31;5081951;28;20402;-72
2022/09/11 10:35:55;;;;;;;5.72;3.22;;;;;;;25.44;19.63;99827.44;5056634;28;20076;-72
2022/09/11 10:38:32;;;;;;;4.32;2.72;;;;;;;24.30;20.81;99814.28;5090084;28;20109;-72
2022/09/11 10:41:12;;;;;;;7.20;3.38;;;;;;;23.87;21.35;99813.91;5056650;28;20571;-72
2022/09/11 10:43:41;;;;;;;6.87;3.30;;;;;;;23.95;21.75;99814.38;5056582;28;20048;-72
2022/09/11 10:46:23;;;;;;;6.38;3.20;;;;;;;23.70;23.34;99813.81;5056653;28;20534;-72
2022/09/11 10:48:58;;;;;;;9.27;3.20;;;;;;;23.16;22.73;99809.56;5073095;28;20089;-72
2022/09/11 10:51:27;;;;;;;7.38;3.30;;;;;;;23.00;22.65;99791.28;5056882;28;20079;-72
2022/09/11 10:54:36;;;;;;;9.43;3.35;;;;;;;23.42;22.55;99799.38;5090346;28;20036;-72
2022/09/11 10:57:26;;;;;;;5.07;3.25;;;;;;;23.63;22.15;99796.03;5018766;28;20044;-73
2022/09/11 10:59:55;;;;;;;8.40;4.20;;;;;;;23.33;22.76;99798.03;5019386;28;20040;-72
2022/09/11 11:02:31;;;;;;;8.82;5.40;;;;;;;23.37;22.68;99793.81;5041850;28;20456;-72
2022/09/11 11:05:05;;;;;;;7.70;3.60;;;;;;;23.41;22.44;99794.97;5072832;28;20398;-71
2022/09/11 11:07:47;;;;;;;12.70;5.10;;;;;;;23.40;22.60;99782.50;5090681;28;20118;-72
2022/09/11 11:10:35;;;;;;;13.93;4.70;;;;;;;23.77;22.10;99781.16;5056118;28;20135;-72
2022/09/11 11:13:34;;;;;;;10.07;3.30;;;;;;;24.16;21.47;99788.47;5039003;28;20044;-72
2022/09/11 11:16:26;;;;;;;8.05;2.58;;;;;;;23.68;22.10;99775.25;5056037;28;20456;-72
2022/09/11 11:19:28;;;;;;;9.85;2.90;;;;;;;23.56;22.07;99787.19;5055703;28;20048;-72
2022/09/11 11:22:33;;;;;;;10.13;2.28;;;;;;;23.83;21.85;99783.72;5047536;28;20131;-72
2022/09/11 11:25:21;;;;;;;6.55;2.22;;;;;;;23.91;21.48;99780.63;5072529;28;20051;-72
2022/09/11 11:28:25;;;;;;;4.97;2.33;;;;;;;24.32;20.93;99790.44;5055725;28;20430;-72
2022/09/11 11:30:59;;;;;;;5.63;2.30;;;;;;;23.95;21.39;99797.25;5066818;28;20056;-72
2022/09/11 11:33:52;;;;;;;4.15;1.95;;;;;;;23.88;21.60;99766.75;5072539;28;20040;-72
2022/09/11 11:36:28;;;;;;;7.75;2.60;;;;;;;23.78;22.20;99772.78;5039170;28;20971;-72
2022/09/11 11:38:59;;;;;;;4.25;2.33;;;;;;;23.84;22.02;99768.25;5072496;28;20056;-71
2022/09/11 11:41:33;;;;;;;6.78;1.77;;;;;;;23.55;22.02;99767.41;5072190;28;20051;-73
2022/09/11 11:44:01;;;;;;;2.80;1.70;;;;;;;23.41;22.53;99767.88;5055711;28;20105;-73
2022/09/11 11:46:37;;;;;;;2.28;1.65;;;;;;;23.05;22.51;99774.34;5039158;28;20040;-73
2022/09/11 11:49:30;;;;;;;2.88;1.63;;;;;;;22.92;22.91;99764.56;5072489;28;20044;-73
2022/09/11 11:52:03;;;;;;;4.35;1.70;;;;;;;22.63;23.42;99759.22;5039232;28;20040;-73